createdAt,value
2019-04-06T00:00:25.567Z,42.35
2019-04-06T00:02:57.234Z,42.50
2019-04-06T00:05:28.785Z,42.30
2019-04-06T00:08:00.364Z,42.75
2019-04-06T00:10:31.963Z,42.60
2019-04-06T00:13:03.542Z,42.03
2019-04-06T00:15:35.084Z,41.65
2019-04-06T00:18:06.629Z,40.98
2019-04-06T00:20:38.186Z,42.17
2019-04-06T00:23:09.703Z,43.02
2019-04-06T00:25:44.668Z,41.02
2019-04-06T00:28:14.462Z,40.25
2019-04-06T00:30:54.914Z,46.42
2019-04-06T00:33:28.029Z,49.20
2019-04-06T00:36:00.551Z,43.42
2019-04-06T00:38:33.871Z,44.27
2019-04-06T00:41:05.490Z,43.52
2019-04-06T00:43:36.986Z,44.18
2019-04-06T00:46:08.473Z,43.87
2019-04-06T00:48:39.956Z,47.03
2019-04-06T00:51:11.531Z,45.45
2019-04-06T00:53:43.040Z,42.03
2019-04-06T00:56:14.550Z,49.83
2019-04-06T00:58:47.234Z,53.28
2019-04-06T01:01:18.781Z,45.75
2019-04-06T01:03:50.337Z,44.70
2019-04-06T01:06:21.885Z,45.52
2019-04-06T01:08:53.317Z,64.75
2019-04-06T01:11:24.838Z,51.83
2019-04-06T01:13:57.362Z,59.60
2019-04-06T01:16:28.919Z,62.25
2019-04-06T01:19:00.459Z,62.73
2019-04-06T01:21:32.999Z,62.58
2019-04-06T01:24:04.706Z,61.68
2019-04-06T01:26:36.207Z,60.98
2019-04-06T01:29:07.715Z,60.23
2019-04-06T01:31:39.147Z,60.15
2019-04-06T01:34:10.648Z,62.35
2019-04-06T01:36:42.248Z,59.83
2019-04-06T01:39:13.960Z,59.30
2019-04-06T01:41:46.519Z,62.47
2019-04-06T01:44:19.536Z,62.53
2019-04-06T01:46:51.148Z,67.30
2019-04-06T01:49:24.183Z,69.00
2019-04-06T01:51:55.715Z,66.45
2019-04-06T01:54:27.366Z,67.53
2019-04-06T01:56:59.006Z,62.50
2019-04-06T01:59:31.716Z,60.90
2019-04-06T02:02:04.836Z,68.57
2019-04-06T02:04:36.364Z,72.82
2019-04-06T02:07:08.170Z,64.97
2019-04-06T02:09:39.692Z,63.40
2019-04-06T02:12:13.279Z,63.28
2019-04-06T02:14:44.851Z,63.30
2019-04-06T02:17:16.410Z,63.28
2019-04-06T02:19:48.918Z,63.23
2019-04-06T02:22:20.736Z,62.40
2019-04-06T02:24:52.237Z,64.27
2019-04-06T02:27:23.762Z,63.35
2019-04-06T02:30:10.342Z,62.30
2019-04-06T02:33:01.258Z,60.43
2019-04-06T02:35:43.786Z,61.75
2019-04-06T02:38:23.139Z,60.90
2019-04-06T02:41:05.662Z,61.23
2019-04-06T02:43:38.878Z,63.78
2019-04-06T02:46:10.461Z,59.38
2019-04-06T02:48:42.051Z,53.38
2019-04-06T02:51:13.578Z,53.25
2019-04-06T02:53:45.075Z,53.63
2019-04-06T02:56:16.613Z,54.67
2019-04-06T02:58:48.209Z,53.52
2019-04-06T03:01:19.960Z,52.70
2019-04-06T03:03:51.496Z,53.15
2019-04-06T03:06:23.130Z,51.77
2019-04-06T03:08:54.655Z,53.65
2019-04-06T03:11:26.157Z,52.45
2019-04-06T03:13:57.874Z,53.40
2019-04-06T03:16:29.483Z,53.58
2019-04-06T03:19:01.055Z,52.93
2019-04-06T03:21:32.691Z,52.35
2019-04-06T03:24:04.735Z,54.45
2019-04-06T03:26:36.481Z,54.67
2019-04-06T03:29:09.069Z,58.58
2019-04-06T03:31:44.887Z,60.23
2019-04-06T03:34:22.485Z,57.90
2019-04-06T03:36:55.581Z,57.78
2019-04-06T03:39:27.116Z,57.43
2019-04-06T03:42:01.898Z,67.12
2019-04-06T03:44:37.435Z,73.35
2019-04-06T03:47:08.891Z,77.47
2019-04-06T03:49:42.465Z,83.17
2019-04-06T03:52:14.045Z,79.42
2019-04-06T03:54:45.862Z,78.20
2019-04-06T03:57:17.662Z,73.28
2019-04-06T03:59:49.727Z,68.72
2019-04-06T04:02:28.367Z,70.15
2019-04-06T04:07:32.140Z,69.90
2019-04-06T04:10:07.315Z,66.75
2019-04-06T04:12:39.091Z,69.72
2019-04-06T04:15:10.770Z,68.28
2019-04-06T04:17:43.422Z,66.55
2019-04-06T04:20:17.023Z,65.95
2019-04-06T04:22:48.760Z,64.60
2019-04-06T04:25:22.537Z,61.00
2019-04-06T04:27:55.105Z,60.58
2019-04-06T04:30:33.113Z,58.20
2019-04-06T04:33:01.062Z,63.30
2019-04-06T04:35:33.807Z,66.12
2019-04-06T04:38:06.334Z,77.20
2019-04-06T04:40:37.857Z,69.22
2019-04-06T04:43:09.417Z,65.70
2019-04-06T04:45:41.519Z,64.22
2019-04-06T04:48:13.480Z,61.15
2019-04-06T04:50:45.041Z,65.25
2019-04-06T04:53:17.578Z,58.35
2019-04-06T04:55:50.166Z,63.05
2019-04-06T04:58:22.092Z,56.95
2019-04-06T05:00:55.147Z,58.05
2019-04-06T05:03:26.712Z,63.10
2019-04-06T05:05:58.213Z,64.47
2019-04-06T05:08:31.296Z,53.17
2019-04-06T05:11:03.131Z,49.23
2019-04-06T05:13:34.638Z,50.90
2019-04-06T05:16:10.912Z,48.25
2019-04-06T05:18:43.672Z,44.93
2019-04-06T05:21:16.682Z,42.10
2019-04-06T05:23:48.192Z,42.35
2019-04-06T05:26:19.721Z,40.80
2019-04-06T05:28:51.345Z,42.38
2019-04-06T05:31:22.919Z,45.88
2019-04-06T05:33:54.425Z,43.35
2019-04-06T05:36:25.935Z,44.83
2019-04-06T05:38:57.483Z,43.38
2019-04-06T05:41:29.019Z,43.30
2019-04-06T05:44:00.548Z,41.53
2019-04-06T05:46:32.056Z,39.70
2019-04-06T05:49:03.568Z,38.90
2019-04-06T05:51:35.097Z,37.35
2019-04-06T05:54:06.596Z,36.50
2019-04-06T05:56:38.211Z,37.53
2019-04-06T05:59:10.323Z,35.30
2019-04-06T06:01:42.617Z,35.23
2019-04-06T06:04:14.252Z,34.85
2019-04-06T06:06:45.763Z,33.88
2019-04-06T06:09:17.266Z,34.08
2019-04-06T06:11:48.777Z,33.48
2019-04-06T06:14:20.850Z,33.70
2019-04-06T06:16:52.445Z,32.55
2019-04-06T06:19:25.169Z,32.13
2019-04-06T06:21:56.680Z,32.08
2019-04-06T06:24:29.707Z,32.75
2019-04-06T06:27:01.267Z,34.38
2019-04-06T06:29:32.892Z,30.17
2019-04-06T06:32:04.894Z,32.23
2019-04-06T06:34:36.754Z,31.73
2019-04-06T06:37:10.621Z,34.53
2019-04-06T06:39:42.259Z,33.95
2019-04-06T06:42:14.086Z,28.83
2019-04-06T06:44:46.236Z,33.78
2019-04-06T06:47:17.801Z,40.20
2019-04-06T06:49:51.516Z,39.73
2019-04-06T06:52:23.044Z,45.00
2019-04-06T06:54:54.586Z,46.75
2019-04-06T06:57:26.133Z,38.95
2019-04-06T06:59:57.653Z,31.35
2019-04-06T07:02:30.256Z,31.12
2019-04-06T07:05:02.099Z,30.05
2019-04-06T07:07:33.618Z,26.17
2019-04-06T07:10:07.836Z,31.65
2019-04-06T07:12:40.400Z,28.65
2019-04-06T07:15:12.099Z,28.12
2019-04-06T07:17:43.701Z,27.70
2019-04-06T07:20:15.362Z,25.55
2019-04-06T07:22:47.886Z,29.70
2019-04-06T07:25:19.674Z,28.75
2019-04-06T07:27:51.179Z,30.02
2019-04-06T07:30:24.064Z,29.35
2019-04-06T07:32:55.855Z,25.65
2019-04-06T07:35:30.315Z,28.07
2019-04-06T07:38:03.531Z,31.50
2019-04-06T07:40:35.183Z,30.85
2019-04-06T07:43:06.707Z,30.50
2019-04-06T07:45:38.250Z,30.60
2019-04-06T07:48:09.746Z,29.50
2019-04-06T07:50:41.502Z,30.60
2019-04-06T07:53:13.208Z,23.38
2019-04-06T07:55:44.914Z,23.20
2019-04-06T07:58:16.745Z,24.25
2019-04-06T08:00:48.318Z,20.37
2019-04-06T08:03:20.012Z,17.42
2019-04-06T08:05:51.508Z,16.20
2019-04-06T08:08:23.079Z,14.43
2019-04-06T08:10:54.742Z,14.55
2019-04-06T08:13:26.316Z,12.75
2019-04-06T08:15:57.966Z,12.60
2019-04-06T08:18:29.699Z,12.78
2019-04-06T08:21:04.559Z,14.15
2019-04-06T08:23:36.234Z,12.78
2019-04-06T08:26:08.917Z,12.93
2019-04-06T08:28:41.441Z,12.00
2019-04-06T08:31:13.043Z,12.35
2019-04-06T08:33:44.619Z,11.93
2019-04-06T08:36:17.224Z,13.70
2019-04-06T08:38:48.766Z,13.95
2019-04-06T08:41:20.464Z,14.43
2019-04-06T08:43:52.042Z,14.80
2019-04-06T08:46:23.759Z,14.58
2019-04-06T08:48:55.235Z,14.35
2019-04-06T08:51:27.042Z,15.65
2019-04-06T08:53:59.591Z,15.32
2019-04-06T08:56:31.030Z,14.15
2019-04-06T08:59:11.615Z,12.80
2019-04-06T09:01:35.810Z,11.78
2019-04-06T09:04:07.400Z,11.20
2019-04-06T09:06:40.064Z,11.68
2019-04-06T09:09:11.612Z,10.70
2019-04-06T09:11:43.224Z,11.18
2019-04-06T09:14:14.776Z,11.22
2019-04-06T09:16:46.705Z,10.70
2019-04-06T09:19:18.328Z,11.18
2019-04-06T09:21:51.831Z,10.80
2019-04-06T09:24:23.552Z,10.13
2019-04-06T09:26:55.334Z,10.75
2019-04-06T09:29:28.187Z,10.95
2019-04-06T09:31:59.761Z,11.20
2019-04-06T09:34:32.197Z,10.50
2019-04-06T09:37:03.921Z,11.15
2019-04-06T09:39:41.206Z,10.68
2019-04-06T09:42:12.970Z,11.80
2019-04-06T09:44:55.211Z,10.82
2019-04-06T09:47:28.936Z,11.95
2019-04-06T09:50:08.291Z,10.75
2019-04-06T09:52:48.910Z,10.70
2019-04-06T09:55:34.167Z,11.70
2019-04-06T10:00:48.925Z,11.63
2019-04-06T10:03:40.875Z,11.75
2019-04-06T10:06:17.082Z,11.65
2019-04-06T10:09:06.340Z,12.00
2019-04-06T10:11:43.985Z,10.80
2019-04-06T10:14:33.536Z,11.08
2019-04-06T10:17:06.733Z,11.53
2019-04-06T10:19:43.284Z,11.65
2019-04-06T10:22:27.015Z,11.85
2019-04-06T10:25:18.994Z,11.97
2019-04-06T10:28:09.236Z,12.03
2019-04-06T10:31:19.103Z,13.10
2019-04-06T10:34:06.200Z,13.18
2019-04-06T10:37:04.905Z,12.40
2019-04-06T10:40:03.810Z,13.83
2019-04-06T10:43:11.389Z,13.18
2019-04-06T10:46:36.058Z,13.38
2019-04-06T10:52:54.703Z,12.35
2019-04-06T10:55:51.021Z,11.85
2019-04-06T10:58:27.877Z,13.10
2019-04-06T11:01:08.061Z,12.05
2019-04-06T11:03:42.341Z,12.93
2019-04-06T11:06:20.141Z,14.07
2019-04-06T11:09:07.041Z,12.50
2019-04-06T11:11:43.465Z,11.70
2019-04-06T11:14:31.720Z,12.37
2019-04-06T11:17:21.859Z,12.68
2019-04-06T11:20:05.601Z,12.63
2019-04-06T11:22:57.130Z,12.43
2019-04-06T11:25:51.836Z,11.75
2019-04-06T11:28:48.867Z,12.82
2019-04-06T11:31:43.280Z,12.45
2019-04-06T11:34:39.887Z,11.50
2019-04-06T11:37:33.753Z,11.65
2019-04-06T11:40:16.266Z,11.73
2019-04-06T11:43:04.014Z,12.20
2019-04-06T11:46:06.430Z,11.97
2019-04-06T11:48:46.188Z,12.68
2019-04-06T11:51:34.450Z,12.75
2019-04-06T11:54:18.902Z,12.33
2019-04-06T11:57:15.408Z,29.72
2019-04-06T12:00:03.681Z,12.63
2019-04-06T12:02:46.294Z,13.65
2019-04-06T12:05:31.826Z,12.20
2019-04-06T12:08:14.947Z,11.68
2019-04-06T12:10:48.448Z,14.50
2019-04-06T12:13:27.969Z,12.37
2019-04-06T12:16:10.380Z,12.00
2019-04-06T12:21:21.856Z,11.48
2019-04-06T12:24:03.822Z,11.60
2019-04-06T12:26:39.982Z,12.00
2019-04-06T12:29:30.927Z,12.65
2019-04-06T12:32:04.014Z,12.73
2019-04-06T12:34:37.223Z,12.25
2019-04-06T12:37:19.486Z,11.68
2019-04-06T12:40:04.637Z,11.93
2019-04-06T12:42:49.661Z,12.82
2019-04-06T12:45:40.756Z,11.95
2019-04-06T12:48:32.172Z,12.20
2019-04-06T12:51:19.454Z,10.98
2019-04-06T12:53:55.361Z,11.88
2019-04-06T12:56:37.769Z,11.60
2019-04-06T12:59:27.076Z,10.95
2019-04-06T13:02:00.270Z,11.68
2019-04-06T13:04:39.702Z,12.05
2019-04-06T13:07:26.877Z,12.10
2019-04-06T13:10:03.139Z,12.07
2019-04-06T13:12:43.470Z,12.07
2019-04-06T13:15:22.604Z,11.70
2019-04-06T13:18:14.155Z,14.53
2019-04-06T13:21:03.564Z,12.45
2019-04-06T13:23:53.051Z,11.73
2019-04-06T13:26:45.380Z,11.63
2019-04-06T13:29:28.222Z,12.58
2019-04-06T13:32:16.744Z,12.10
2019-04-06T13:34:54.679Z,11.90
2019-04-06T13:37:33.916Z,11.40
2019-04-06T13:40:27.376Z,11.65
2019-04-06T13:43:09.612Z,12.65
2019-04-06T13:45:48.541Z,12.03
2019-04-06T13:48:25.545Z,11.73
2019-04-06T13:51:15.175Z,12.15
2019-04-06T13:53:58.270Z,11.88
2019-04-06T13:56:40.778Z,11.35
2019-04-06T13:59:22.978Z,11.08
2019-04-06T14:02:13.252Z,14.10
2019-04-06T14:04:58.589Z,11.03
2019-04-06T14:10:19.013Z,11.33
2019-04-06T14:13:01.248Z,11.08
2019-04-06T14:15:49.679Z,11.15
2019-04-06T14:18:40.888Z,11.30
2019-04-06T14:21:23.143Z,10.68
2019-04-06T14:23:59.260Z,10.85
2019-04-06T14:26:47.503Z,10.48
2019-04-06T14:29:20.594Z,11.10
2019-04-06T14:31:57.071Z,12.07
2019-04-06T14:34:36.562Z,11.70
2019-04-06T14:37:09.734Z,11.88
2019-04-06T14:39:51.779Z,11.80
2019-04-06T14:42:27.737Z,11.88
2019-04-06T14:45:18.861Z,11.10
2019-04-06T14:47:55.808Z,11.60
2019-04-06T14:50:35.201Z,10.40
2019-04-06T14:53:24.945Z,11.63
2019-04-06T14:56:01.040Z,11.30
2019-04-06T14:58:52.583Z,11.57
2019-04-06T15:01:41.183Z,11.65
2019-04-06T15:04:19.546Z,10.58
2019-04-06T15:07:09.422Z,11.05
2019-04-06T15:09:36.846Z,11.60
2019-04-06T15:12:10.368Z,11.38
2019-04-06T15:14:49.414Z,12.82
2019-04-06T15:17:28.947Z,13.83
2019-04-06T15:20:11.315Z,13.10
2019-04-06T15:22:50.447Z,12.18
2019-04-06T15:25:28.893Z,12.78
2019-04-06T15:28:08.207Z,12.98
2019-04-06T15:30:44.060Z,13.08
2019-04-06T15:33:20.140Z,11.73
2019-04-06T15:35:56.298Z,11.65
2019-04-06T15:38:36.543Z,10.68
2019-04-06T15:41:21.666Z,11.35
2019-04-06T15:43:54.794Z,11.25
2019-04-06T15:46:44.643Z,11.40
2019-04-06T15:49:28.350Z,12.50
2019-04-06T15:52:10.154Z,12.37
2019-04-06T15:54:45.296Z,12.30
2019-04-06T15:57:18.462Z,12.88
2019-04-06T15:59:54.625Z,13.45
2019-04-06T16:02:39.998Z,14.03
2019-04-06T16:08:03.326Z,12.78
2019-04-06T16:10:53.060Z,13.98
2019-04-06T16:13:42.581Z,12.50
2019-04-06T16:16:21.427Z,13.10
2019-04-06T16:18:57.553Z,13.53
2019-04-06T16:21:46.645Z,12.73
2019-04-06T16:24:28.730Z,14.90
2019-04-06T16:27:01.893Z,16.52
2019-04-06T16:29:36.047Z,17.37
2019-04-06T16:32:12.170Z,17.02
2019-04-06T16:34:44.923Z,17.92
2019-04-06T16:37:18.085Z,17.12
2019-04-06T16:39:51.231Z,17.15
2019-04-06T16:42:30.611Z,16.42
2019-04-06T16:45:22.873Z,17.67
2019-04-06T16:47:56.973Z,17.80
2019-04-06T16:50:32.729Z,16.17
2019-04-06T16:53:12.495Z,16.00
2019-04-06T16:55:45.806Z,15.53
2019-04-06T16:58:35.528Z,14.55
2019-04-06T17:01:21.034Z,14.73
2019-04-06T17:03:55.639Z,14.87
2019-04-06T17:06:29.542Z,15.00
2019-04-06T17:09:15.745Z,14.63
2019-04-06T17:11:49.890Z,14.55
2019-04-06T17:14:25.992Z,15.98
2019-04-06T17:17:01.780Z,16.75
2019-04-06T17:19:44.106Z,17.60
2019-04-06T17:22:29.345Z,18.50
2019-04-06T17:25:05.433Z,19.65
2019-04-06T17:27:50.577Z,19.12
2019-04-06T17:30:26.975Z,20.62
2019-04-06T17:33:00.428Z,19.75
2019-04-06T17:35:50.516Z,21.52
2019-04-06T17:38:27.029Z,20.15
2019-04-06T17:41:06.478Z,21.10
2019-04-06T17:43:43.027Z,21.52
2019-04-06T17:46:22.467Z,22.25
2019-04-06T17:49:01.334Z,21.75
2019-04-06T17:51:36.678Z,21.65
2019-04-06T17:54:15.698Z,21.55
2019-04-06T17:56:50.315Z,21.23
2019-04-06T17:59:32.480Z,19.92
2019-04-06T18:02:08.986Z,21.00
2019-04-06T18:04:59.076Z,21.00
2019-04-06T18:07:41.542Z,20.52
2019-04-06T18:10:14.662Z,21.00
2019-04-06T18:12:47.744Z,20.12
2019-04-06T18:15:22.840Z,20.82
2019-04-06T18:17:54.416Z,21.07
2019-04-06T18:20:26.104Z,22.00
2019-04-06T18:22:58.152Z,22.17
2019-04-06T18:25:29.748Z,23.20
2019-04-06T18:28:01.587Z,22.83
2019-04-06T18:30:33.242Z,22.22
2019-04-06T18:33:09.437Z,21.52
2019-04-06T18:35:41.051Z,21.50
2019-04-06T18:38:16.848Z,23.18
2019-04-06T18:40:48.361Z,25.15
2019-04-06T18:43:20.858Z,27.10
2019-04-06T18:45:52.350Z,27.80
2019-04-06T18:48:23.888Z,27.77
2019-04-06T18:50:55.455Z,24.75
2019-04-06T18:53:28.019Z,22.20
2019-04-06T18:56:00.894Z,23.15
2019-04-06T18:58:32.493Z,21.62
2019-04-06T19:01:04.594Z,23.32
2019-04-06T19:03:36.795Z,23.52
2019-04-06T19:06:09.521Z,23.00
2019-04-06T19:08:41.024Z,23.62
2019-04-06T19:11:12.668Z,23.65
2019-04-06T19:13:44.365Z,24.40
2019-04-06T19:16:18.015Z,22.82
2019-04-06T19:18:50.086Z,22.07
2019-04-06T19:21:23.236Z,21.85
2019-04-06T19:23:54.997Z,22.00
2019-04-06T19:26:26.567Z,22.25
2019-04-06T19:28:58.187Z,20.90
2019-04-06T19:31:30.710Z,20.97
2019-04-06T19:34:02.333Z,22.80
2019-04-06T19:36:34.061Z,21.93
2019-04-06T19:39:08.637Z,21.73
2019-04-06T19:41:40.687Z,22.02
2019-04-06T19:44:13.265Z,21.50
2019-04-06T19:46:46.053Z,20.23
2019-04-06T19:49:17.869Z,22.17
2019-04-06T19:51:51.533Z,19.75
2019-04-06T19:54:23.214Z,19.82
2019-04-06T19:56:55.159Z,20.70
2019-04-06T19:59:26.773Z,18.67
2019-04-06T20:01:58.691Z,19.85
2019-04-06T20:04:30.808Z,20.12
2019-04-06T20:07:03.683Z,19.12
2019-04-06T20:09:36.592Z,19.50
2019-04-06T20:12:08.167Z,19.95
2019-04-06T20:14:39.724Z,19.10
2019-04-06T20:17:11.228Z,18.87
2019-04-06T20:19:42.892Z,20.05
2019-04-06T20:22:14.875Z,19.32
2019-04-06T20:24:47.619Z,22.15
2019-04-06T20:27:21.272Z,19.48
2019-04-06T20:29:53.504Z,20.20
2019-04-06T20:32:25.601Z,20.72
2019-04-06T20:34:57.402Z,18.85
2019-04-06T20:37:32.382Z,17.87
2019-04-06T20:40:05.284Z,19.15
2019-04-06T20:42:36.950Z,18.65
2019-04-06T20:45:09.221Z,18.52
2019-04-06T20:47:40.888Z,19.12
2019-04-06T20:50:12.385Z,19.32
2019-04-06T20:52:43.983Z,19.65
2019-04-06T20:55:15.495Z,19.42
2019-04-06T20:57:48.326Z,19.42
2019-04-06T21:00:20.797Z,20.15
2019-04-06T21:02:52.250Z,19.92
2019-04-06T21:05:24.230Z,20.40
2019-04-06T21:07:56.413Z,19.60
2019-04-06T21:10:28.242Z,21.05
2019-04-06T21:12:59.907Z,21.48
2019-04-06T21:15:31.924Z,33.20
2019-04-06T21:18:03.458Z,34.90
2019-04-06T21:20:36.868Z,38.98
2019-04-06T21:23:09.645Z,38.45
2019-04-06T21:25:41.748Z,36.77
2019-04-06T21:28:14.488Z,43.52
2019-04-06T21:30:47.873Z,36.95
2019-04-06T21:33:20.095Z,33.48
2019-04-06T21:35:51.592Z,28.40
2019-04-06T21:38:23.107Z,29.60
2019-04-06T21:40:54.673Z,30.65
2019-04-06T21:43:27.790Z,29.72
2019-04-06T21:45:59.292Z,25.17
2019-04-06T21:48:31.318Z,28.35
2019-04-06T21:51:03.936Z,24.72
2019-04-06T21:53:35.872Z,25.02
2019-04-06T21:56:08.294Z,25.55
2019-04-06T21:58:40.444Z,25.55
2019-04-06T22:01:13.970Z,24.05
2019-04-06T22:06:17.439Z,24.52
2019-04-06T22:08:48.999Z,25.65
2019-04-06T22:11:20.523Z,22.70
2019-04-06T22:13:52.195Z,21.50
2019-04-06T22:16:23.698Z,23.42
2019-04-06T22:18:55.251Z,21.23
2019-04-06T22:21:27.115Z,22.60
2019-04-06T22:23:59.118Z,20.77
2019-04-06T22:26:30.720Z,20.95
2019-04-06T22:29:02.717Z,19.87
2019-04-06T22:31:34.347Z,19.98
2019-04-06T22:34:05.875Z,20.82
2019-04-06T22:36:37.424Z,20.10
2019-04-06T22:39:10.067Z,20.23
2019-04-06T22:41:42.048Z,21.05
2019-04-06T22:44:13.686Z,25.25
2019-04-06T22:46:45.143Z,23.75
2019-04-06T22:49:16.694Z,22.35
2019-04-06T22:51:48.337Z,21.37
2019-04-06T22:54:19.862Z,22.40
2019-04-06T22:56:52.043Z,21.90
2019-04-06T22:59:23.651Z,20.48
2019-04-06T23:01:55.146Z,20.65
2019-04-06T23:04:28.714Z,19.48
2019-04-06T23:07:02.071Z,20.25
2019-04-06T23:09:34.603Z,20.57
2019-04-06T23:12:06.432Z,20.75
2019-04-06T23:14:38.338Z,21.02
2019-04-06T23:17:10.246Z,23.73
2019-04-06T23:19:42.017Z,24.23
2019-04-06T23:22:14.136Z,26.02
2019-04-06T23:24:45.871Z,29.10
2019-04-06T23:27:17.377Z,27.07
2019-04-06T23:29:48.898Z,31.33
2019-04-06T23:32:20.536Z,30.02
2019-04-06T23:34:59.458Z,29.50
2019-04-06T23:37:26.267Z,28.17
2019-04-06T23:39:58.448Z,27.48
2019-04-06T23:42:31.899Z,28.32
2019-04-06T23:45:03.582Z,28.65
2019-04-06T23:47:35.187Z,28.98
2019-04-06T23:50:07.650Z,27.27
2019-04-06T23:52:39.875Z,26.23
2019-04-06T23:55:11.944Z,24.07
2019-04-06T23:57:44.567Z,26.00
